Time;durP1;ratioP1;P1;durP2;ratioP2;P2;SDS_P1;SDS_P2;PMS_P1;PMS_P2;Temp;Humidity;BMP_temperature;BMP_pressure;BME280_temperature;BME280_humidity;BME280_pressure;Samples;Min_cycle;Max_cycle;Signal;HPM_P1;HPM_P2
2021/06/15 00:00:30;;;;;;;4.90;3.20;;;20.20;73.40;;;;;;5159851;27;20647;-68
2021/06/15 00:02:57;;;;;;;4.13;3.20;;;20.20;73.50;;;;;;5164345;27;20651;-68
2021/06/15 00:05:24;;;;;;;5.97;3.43;;;20.20;73.50;;;;;;5165083;27;20568;-68
2021/06/15 00:07:51;;;;;;;4.90;3.00;;;20.20;73.50;;;;;;5163023;27;20214;-68
2021/06/15 00:10:22;;;;;;;7.43;3.00;;;20.20;73.50;;;;;;5166101;27;20225;-68
2021/06/15 00:12:51;;;;;;;11.97;3.57;;;20.20;73.30;;;;;;5159009;27;20554;-67
2021/06/15 00:15:19;;;;;;;3.23;2.87;;;20.20;73.20;;;;;;5166543;27;20218;-67
2021/06/15 00:17:47;;;;;;;9.00;2.90;;;20.20;73.10;;;;;;5164730;27;20207;-67
2021/06/15 00:20:15;;;;;;;3.17;2.87;;;20.20;73.00;;;;;;5162797;27;20684;-67
2021/06/15 00:22:43;;;;;;;3.23;2.90;;;20.20;72.90;;;;;;5165879;27;20218;-67
2021/06/15 00:25:13;;;;;;;7.07;2.77;;;20.20;72.90;;;;;;5170693;27;20278;-67
2021/06/15 00:27:41;;;;;;;3.50;2.93;;;20.20;73.00;;;;;;5162774;27;20597;-67
2021/06/15 00:30:10;;;;;;;4.90;2.70;;;20.20;72.90;;;;;;5168107;27;20519;-67
2021/06/15 00:32:37;;;;;;;12.53;2.90;;;20.10;72.90;;;;;;5169497;27;20207;-67
2021/06/15 00:35:04;;;;;;;4.00;2.90;;;20.10;72.80;;;;;;5166999;27;20274;-67
2021/06/15 00:37:31;;;;;;;3.87;2.83;;;20.10;72.80;;;;;;5169811;27;20226;-67
2021/06/15 00:39:58;;;;;;;6.17;3.27;;;20.10;72.90;;;;;;5167563;27;20842;-67
2021/06/15 00:42:25;;;;;;;4.67;3.23;;;20.10;73.00;;;;;;5169964;27;20286;-67
2021/06/15 00:44:52;;;;;;;4.67;3.03;;;20.10;73.00;;;;;;5161231;27;20207;-67
2021/06/15 00:47:19;;;;;;;6.33;3.23;;;20.00;72.90;;;;;;5170189;27;20282;-68
2021/06/15 00:49:47;;;;;;;5.73;3.00;;;20.10;72.90;;;;;;5167873;27;20701;-68
2021/06/15 00:52:14;;;;;;;6.70;2.90;;;20.00;72.80;;;;;;5168524;27;20237;-68
2021/06/15 00:54:43;;;;;;;7.93;3.23;;;20.10;72.90;;;;;;5168781;27;20214;-68
2021/06/15 00:57:19;;;;;;;6.67;2.63;;;20.10;72.90;;;;;;5167124;27;20218;-68
2021/06/15 00:59:46;;;;;;;3.77;2.73;;;20.00;72.90;;;;;;5162858;27;20210;-68
2021/06/15 01:02:13;;;;;;;2.93;2.63;;;20.00;73.00;;;;;;5167633;27;20219;-67
2021/06/15 01:04:40;;;;;;;5.20;2.87;;;20.00;73.00;;;;;;5168542;27;20293;-67
2021/06/15 01:07:16;;;;;;;4.53;2.37;;;19.90;73.00;;;;;;5168653;27;20640;-67
2021/06/15 01:09:51;;;;;;;3.77;2.90;;;19.90;73.00;;;;;;5162475;27;20202;-67
2021/06/15 01:12:37;;;;;;;7.47;3.23;;;19.90;73.10;;;;;;5168372;27;20290;-67
2021/06/15 01:15:04;;;;;;;6.70;2.43;;;19.90;73.10;;;;;;5163032;27;20207;-67
2021/06/15 01:17:47;;;;;;;5.03;3.07;;;19.90;73.10;;;;;;5168848;27;20210;-67
2021/06/15 01:20:15;;;;;;;7.73;3.70;;;19.90;73.40;;;;;;5163300;27;20266;-67
2021/06/15 01:22:46;;;;;;;5.90;3.17;;;19.90;73.60;;;;;;5166899;27;20222;-67
2021/06/15 01:25:32;;;;;;;4.70;2.80;;;19.80;73.70;;;;;;5170541;27;20271;-67
2021/06/15 01:28:02;;;;;;;3.70;2.60;;;19.80;74.10;;;;;;5160513;27;20207;-67
2021/06/15 01:30:36;;;;;;;5.63;3.27;;;19.80;74.30;;;;;;5165669;27;20211;-67
2021/06/15 01:33:06;;;;;;;4.50;2.80;;;19.70;74.50;;;;;;5169144;27;20235;-67
2021/06/15 01:35:35;;;;;;;4.27;3.07;;;19.70;74.80;;;;;;5162767;27;20271;-67
2021/06/15 01:38:09;;;;;;;6.67;2.93;;;19.60;75.00;;;;;;5166681;27;20215;-67
2021/06/15 01:40:51;;;;;;;5.17;2.63;;;19.60;75.20;;;;;;5167323;27;20210;-67
2021/06/15 01:43:24;;;;;;;6.30;3.53;;;19.60;75.40;;;;;;5164014;27;20222;-67
2021/06/15 01:45:53;;;;;;;3.67;3.30;;;19.60;75.60;;;;;;5165060;27;20688;-67
2021/06/15 01:48:31;;;;;;;3.83;3.20;;;19.60;75.70;;;;;;5168832;27;20222;-67
2021/06/15 01:51:02;;;;;;;4.53;3.23;;;19.60;75.90;;;;;;5163595;27;20671;-67
2021/06/15 01:53:33;;;;;;;5.83;3.17;;;19.60;76.00;;;;;;5160875;27;20683;-67
2021/06/15 01:56:04;;;;;;;5.70;3.30;;;19.60;76.10;;;;;;5169005;27;20218;-67
2021/06/15 01:58:36;;;;;;;6.20;3.20;;;19.50;76.30;;;;;;5158723;27;20207;-67
2021/06/15 02:01:05;;;;;;;7.40;3.67;;;19.50;76.50;;;;;;5167676;27;20232;-67
2021/06/15 02:03:33;;;;;;;5.20;3.50;;;19.50;76.70;;;;;;5167633;27;20215;-67
2021/06/15 02:06:01;;;;;;;7.13;3.27;;;19.50;76.80;;;;;;5166071;27;20215;-67
2021/06/15 02:08:35;;;;;;;4.10;3.20;;;19.50;76.80;;;;;;5168837;27;20680;-67
2021/06/15 02:11:03;;;;;;;4.53;3.13;;;19.50;77.00;;;;;;5163236;27;20242;-67
2021/06/15 02:13:32;;;;;;;4.50;3.57;;;19.50;77.00;;;;;;5149258;27;20215;-67
2021/06/15 02:16:01;;;;;;;3.17;2.93;;;19.40;77.10;;;;;;5153083;27;20203;-67
2021/06/15 02:18:30;;;;;;;8.20;3.30;;;19.40;77.30;;;;;;5161105;27;20314;-67
2021/06/15 02:21:00;;;;;;;10.07;3.30;;;19.30;77.50;;;;;;5162291;27;20213;-67
2021/06/15 02:23:27;;;;;;;6.80;3.10;;;19.20;77.80;;;;;;5164836;27;20223;-67
2021/06/15 02:25:59;;;;;;;6.67;3.70;;;19.20;78.00;;;;;;5164782;27;20218;-67
2021/06/15 02:28:27;;;;;;;4.30;2.83;;;19.20;78.00;;;;;;5167528;27;20289;-67
2021/06/15 02:30:59;;;;;;;5.20;3.30;;;19.20;78.00;;;;;;5165089;27;20235;-67
2021/06/15 02:33:34;;;;;;;5.57;3.20;;;19.20;77.80;;;;;;5162757;27;20207;-67
2021/06/15 02:36:10;;;;;;;4.27;3.43;;;19.30;77.50;;;;;;5167169;27;20206;-67
2021/06/15 02:38:57;;;;;;;6.37;3.63;;;19.20;77.50;;;;;;5164565;27;20271;-67
2021/06/15 02:41:26;;;;;;;4.97;3.20;;;19.20;77.80;;;;;;5165036;27;20248;-67
2021/06/15 02:43:59;;;;;;;5.53;3.23;;;19.20;78.00;;;;;;5161492;27;20210;-67
2021/06/15 02:46:29;;;;;;;5.20;2.97;;;19.20;78.00;;;;;;5162720;27;20271;-67
2021/06/15 02:48:59;;;;;;;3.73;3.17;;;19.20;77.80;;;;;;5166029;27;20294;-67
2021/06/15 02:51:30;;;;;;;4.30;3.27;;;19.10;77.70;;;;;;5164277;27;20517;-67
2021/06/15 02:54:30;;;;;;;9.10;4.50;;;19.00;78.00;;;;;;5160482;27;20239;-68
2021/06/15 02:56:58;;;;;;;5.40;4.17;;;18.90;78.90;;;;;;5162553;27;20211;-68
2021/06/15 02:59:25;;;;;;;6.77;3.27;;;18.80;79.00;;;;;;5162785;27;20225;-68
2021/06/15 03:01:53;;;;;;;6.20;4.50;;;18.80;79.20;;;;;;5165454;27;20210;-68
2021/06/15 03:04:21;;;;;;;8.57;3.90;;;18.80;79.60;;;;;;5167243;27;20650;-68
2021/06/15 03:06:48;;;;;;;5.53;4.50;;;18.70;80.00;;;;;;5164184;27;20207;-68
2021/06/15 03:09:15;;;;;;;11.87;4.47;;;18.70;80.10;;;;;;5160254;27;20283;-68
2021/06/15 03:11:48;;;;;;;4.57;4.03;;;18.70;80.30;;;;;;5166927;27;20242;-68
2021/06/15 03:14:20;;;;;;;6.93;4.77;;;18.60;80.60;;;;;;5163263;27;20219;-68
2021/06/15 03:16:50;;;;;;;9.00;4.17;;;18.60;80.80;;;;;;5167219;27;20679;-68
2021/06/15 03:19:27;;;;;;;8.37;4.20;;;18.50;80.80;;;;;;5159559;27;20225;-68
2021/06/15 03:22:03;;;;;;;7.43;4.27;;;18.40;81.00;;;;;;5165699;27;20210;-68
2021/06/15 03:24:33;;;;;;;7.63;4.53;;;18.40;81.30;;;;;;5165959;27;20682;-68
2021/06/15 03:27:02;;;;;;;10.23;4.17;;;18.40;81.40;;;;;;5164140;27;20913;-68
2021/06/15 03:29:32;;;;;;;8.63;4.30;;;18.40;81.50;;;;;;5161512;27;20267;-68
2021/06/15 03:32:04;;;;;;;8.33;4.33;;;18.50;81.30;;;;;;5164934;27;20710;-68
2021/06/15 03:34:34;;;;;;;9.97;4.40;;;18.60;81.20;;;;;;5167132;27;20206;-68
2021/06/15 03:37:02;;;;;;;6.00;4.23;;;18.60;81.10;;;;;;5160928;27;20207;-68
2021/06/15 03:39:32;;;;;;;6.57;3.80;;;18.60;80.90;;;;;;5166453;27;20259;-68
2021/06/15 03:42:02;;;;;;;9.30;4.17;;;18.60;80.60;;;;;;5165925;27;20670;-68
2021/06/15 03:44:29;;;;;;;6.60;4.60;;;18.60;80.50;;;;;;5162624;27;20267;-68
2021/06/15 03:46:58;;;;;;;12.57;5.07;;;18.70;80.40;;;;;;5167115;27;20221;-68
2021/06/15 03:49:28;;;;;;;4.70;4.30;;;18.60;80.60;;;;;;5159817;27;20661;-68
2021/06/15 03:52:01;;;;;;;6.63;4.00;;;18.60;80.80;;;;;;5165799;27;20230;-68
2021/06/15 03:54:28;;;;;;;6.33;3.87;;;18.60;80.90;;;;;;5161319;27;20677;-68
2021/06/15 03:56:59;;;;;;;5.00;4.33;;;18.60;80.80;;;;;;5162337;27;20240;-68
2021/06/15 03:59:28;;;;;;;6.37;4.37;;;18.70;80.50;;;;;;5155971;27;20202;-68
2021/06/15 04:02:02;;;;;;;4.17;3.40;;;18.70;80.30;;;;;;5166196;27;20214;-68
2021/06/15 04:04:32;;;;;;;9.50;3.40;;;18.70;80.30;;;;;;5165563;27;20214;-68
2021/06/15 04:07:00;;;;;;;7.80;4.40;;;18.80;80.50;;;;;;5163543;27;20223;-68
2021/06/15 04:09:31;;;;;;;5.00;4.03;;;18.80;80.50;;;;;;5167010;27;20286;-68
2021/06/15 04:11:59;;;;;;;9.63;3.67;;;18.80;80.50;;;;;;5166072;27;20301;-68
2021/06/15 04:14:28;;;;;;;5.90;3.53;;;18.90;80.60;;;;;;5160338;27;20207;-68
2021/06/15 04:16:57;;;;;;;5.93;3.57;;;18.90;80.70;;;;;;5165420;27;20206;-68
2021/06/15 04:19:58;;;;;;;5.73;4.30;;;19.00;80.70;;;;;;5163116;27;20210;-68
2021/06/15 04:22:29;;;;;;;4.80;3.43;;;19.10;80.70;;;;;;5108130;27;20207;-68
2021/06/15 04:24:58;;;;;;;6.57;3.83;;;19.20;80.50;;;;;;5163117;27;20206;-68
2021/06/15 04:27:26;;;;;;;4.07;3.53;;;19.30;80.40;;;;;;5164341;27;20806;-68
2021/06/15 04:29:55;;;;;;;3.90;3.40;;;19.40;80.40;;;;;;5162724;27;20249;-68
2021/06/15 04:32:31;;;;;;;4.30;3.63;;;19.50;80.30;;;;;;5166471;27;20230;-68
2021/06/15 04:35:03;;;;;;;5.17;3.60;;;19.60;80.20;;;;;;5161495;27;20259;-68
2021/06/15 04:37:31;;;;;;;5.00;3.40;;;19.70;79.80;;;;;;5164314;27;20214;-68
2021/06/15 04:40:11;;;;;;;8.33;4.63;;;19.80;79.50;;;;;;5148216;27;20523;-68
2021/06/15 04:42:53;;;;;;;6.70;4.00;;;19.90;79.30;;;;;;5162052;27;20230;-68
2021/06/15 04:45:25;;;;;;;5.57;3.40;;;20.00;79.10;;;;;;5155061;27;20266;-68
2021/06/15 04:48:03;;;;;;;5.50;3.53;;;20.00;78.90;;;;;;5160355;27;20206;-68
2021/06/15 04:50:32;;;;;;;9.47;3.60;;;20.10;78.70;;;;;;5166478;27;20213;-68
2021/06/15 04:53:03;;;;;;;12.20;4.37;;;20.20;78.40;;;;;;5166444;27;20303;-68
2021/06/15 04:55:36;;;;;;;5.83;3.47;;;20.30;78.20;;;;;;5164268;27;20211;-68
2021/06/15 04:58:06;;;;;;;4.17;3.33;;;20.40;77.90;;;;;;5162704;27;20697;-68
2021/06/15 05:00:34;;;;;;;9.97;4.00;;;20.50;77.80;;;;;;5158249;27;20713;-69
2021/06/15 05:03:03;;;;;;;6.27;3.73;;;20.60;77.80;;;;;;5139999;27;20296;-69
2021/06/15 05:05:31;;;;;;;6.17;3.90;;;20.60;77.80;;;;;;5158501;27;20200;-68
2021/06/15 05:08:05;;;;;;;4.87;3.70;;;20.80;78.50;;;;;;5163930;27;20283;-68
2021/06/15 05:10:36;;;;;;;4.73;3.60;;;20.90;77.70;;;;;;5147112;27;20206;-68
2021/06/15 05:13:07;;;;;;;8.13;3.83;;;21.00;77.50;;;;;;5169458;27;20238;-68
2021/06/15 05:15:35;;;;;;;5.10;3.93;;;21.10;77.30;;;;;;5167201;27;20240;-68
2021/06/15 05:18:02;;;;;;;4.93;3.57;;;21.20;76.70;;;;;;5162422;27;20203;-68
2021/06/15 05:20:29;;;;;;;7.27;4.10;;;21.30;76.40;;;;;;5168440;27;20211;-68
2021/06/15 05:23:15;;;;;;;7.13;3.97;;;21.40;76.30;;;;;;5163296;27;20204;-68
2021/06/15 05:25:42;;;;;;;5.57;3.90;;;21.50;76.10;;;;;;5165676;27;20211;-68
2021/06/15 05:28:10;;;;;;;6.80;4.00;;;21.60;75.50;;;;;;5167464;27;20210;-69
2021/06/15 05:30:38;;;;;;;7.87;3.27;;;21.70;75.20;;;;;;5144045;27;20627;-68
2021/06/15 05:33:05;;;;;;;7.27;3.40;;;21.90;75.30;;;;;;5165599;27;20231;-68
2021/06/15 05:35:32;;;;;;;5.63;3.50;;;22.20;74.80;;;;;;5154861;27;20210;-68
2021/06/15 05:37:59;;;;;;;8.53;3.60;;;22.30;74.00;;;;;;5169891;27;20203;-68
2021/06/15 05:40:26;;;;;;;4.40;3.30;;;22.50;73.30;;;;;;5164207;27;20203;-68
2021/06/15 05:42:53;;;;;;;5.67;3.13;;;22.60;72.80;;;;;;5169654;27;20242;-68
2021/06/15 05:45:20;;;;;;;8.20;3.77;;;22.80;72.40;;;;;;5158502;27;20204;-68
2021/06/15 05:47:47;;;;;;;8.43;3.77;;;23.00;71.90;;;;;;5156281;27;20215;-68
2021/06/15 05:50:15;;;;;;;6.23;3.37;;;23.20;71.10;;;;;;5165128;27;20211;-69
2021/06/15 05:52:44;;;;;;;6.80;2.90;;;23.40;70.50;;;;;;5161913;27;20659;-68
2021/06/15 05:55:13;;;;;;;4.13;2.90;;;23.50;68.80;;;;;;5144170;27;20207;-68
2021/06/15 05:57:40;;;;;;;2.80;2.43;;;23.70;68.00;;;;;;5167304;27;20534;-68
2021/06/15 06:00:09;;;;;;;6.23;2.77;;;23.90;67.00;;;;;;5165206;27;20635;-68
2021/06/15 06:02:36;;;;;;;7.53;2.60;;;24.20;65.70;;;;;;5167824;27;20219;-68
2021/06/15 06:08:04;;;;;;;4.00;2.93;;;24.30;63.50;;;;;;5162675;27;20288;-68
2021/06/15 06:08:07;;;;;;;8.33;2.80;;;24.40;63.00;;;;;;5159348;27;20259;-68
2021/06/15 06:10:37;;;;;;;5.00;2.73;;;24.60;63.50;;;;;;5163669;27;20271;-68
2021/06/15 06:13:06;;;;;;;4.33;2.50;;;24.90;62.70;;;;;;5166284;27;20230;-68
2021/06/15 06:15:34;;;;;;;5.90;2.97;;;25.10;62.20;;;;;;5168112;27;20206;-68
2021/06/15 06:18:07;;;;;;;5.80;2.43;;;25.30;61.50;;;;;;5164869;27;20298;-68
2021/06/15 06:20:39;;;;;;;6.83;2.70;;;25.50;60.20;;;;;;5162497;27;20203;-68
2021/06/15 06:23:06;;;;;;;3.67;2.10;;;25.70;60.00;;;;;;5165978;27;20266;-68
2021/06/15 06:25:34;;;;;;;5.67;3.07;;;25.90;59.60;;;;;;5164721;27;20297;-69
2021/06/15 06:28:03;;;;;;;9.23;2.57;;;26.00;58.30;;;;;;5167884;27;20282;-68
2021/06/15 06:30:31;;;;;;;2.70;1.70;;;26.10;57.60;;;;;;5160533;27;20222;-68
2021/06/15 06:32:59;;;;;;;4.03;2.10;;;26.20;56.40;;;;;;5167766;27;20238;-68
2021/06/15 06:35:26;;;;;;;5.37;2.30;;;26.30;55.70;;;;;;5165763;27;20203;-68
2021/06/15 06:37:53;;;;;;;2.50;1.80;;;26.40;55.20;;;;;;5162156;27;20259;-68
2021/06/15 06:40:21;;;;;;;4.93;2.50;;;26.50;54.90;;;;;;5165216;27;20214;-68
2021/06/15 06:42:48;;;;;;;2.43;2.03;;;26.70;53.80;;;;;;5159876;27;20555;-68
2021/06/15 06:45:15;;;;;;;6.77;2.33;;;26.80;53.80;;;;;;5164408;27;20267;-68
2021/06/15 06:47:43;;;;;;;5.03;1.97;;;27.00;52.40;;;;;;5154242;27;20226;-69
2021/06/15 06:50:10;;;;;;;4.40;2.20;;;27.00;52.10;;;;;;5165248;27;20211;-69
2021/06/15 06:52:38;;;;;;;5.23;1.87;;;27.10;51.50;;;;;;5166772;27;20255;-69
2021/06/15 06:55:06;;;;;;;3.90;1.83;;;27.20;50.90;;;;;;5162274;27;20206;-68
2021/06/15 06:57:33;;;;;;;5.50;2.00;;;27.30;51.00;;;;;;5166586;27;20207;-68
2021/06/15 07:00:01;;;;;;;2.63;1.87;;;27.60;50.40;;;;;;5156590;27;20653;-69
2021/06/15 07:02:28;;;;;;;6.53;2.00;;;27.80;50.10;;;;;;5168153;27;20214;-69
2021/06/15 07:04:55;;;;;;;3.23;1.93;;;28.10;50.10;;;;;;5155568;27;20566;-69
2021/06/15 07:07:22;;;;;;;4.40;2.10;;;28.30;50.20;;;;;;5167566;27;20221;-69
2021/06/15 07:09:49;;;;;;;4.23;2.27;;;28.50;50.10;;;;;;5161976;27;20202;-69
2021/06/15 07:12:16;;;;;;;4.53;1.90;;;28.50;50.10;;;;;;5166258;27;20238;-68
2021/06/15 07:14:43;;;;;;;6.37;1.83;;;28.60;50.10;;;;;;5166066;27;20203;-68
2021/06/15 07:17:11;;;;;;;3.23;1.60;;;28.70;48.80;;;;;;5162756;27;20571;-68
2021/06/15 07:19:38;;;;;;;3.83;2.10;;;28.70;48.20;;;;;;5163766;27;20202;-68
2021/06/15 07:22:07;;;;;;;6.60;1.70;;;28.70;48.10;;;;;;5167793;27;20214;-68
2021/06/15 07:24:35;;;;;;;3.70;1.80;;;28.70;48.00;;;;;;5162350;27;20623;-68
2021/06/15 07:27:02;;;;;;;3.27;2.03;;;28.80;46.10;;;;;;5164933;27;20568;-68
2021/06/15 07:29:29;;;;;;;2.10;1.87;;;28.90;45.80;;;;;;5166152;27;20225;-68
2021/06/15 07:31:57;;;;;;;2.87;2.10;;;29.10;46.20;;;;;;5164741;27;20211;-68
2021/06/15 07:34:24;;;;;;;2.80;1.80;;;29.20;45.40;;;;;;5164739;27;20245;-68
2021/06/15 07:36:51;;;;;;;3.93;1.97;;;29.40;43.10;;;;;;5166875;27;20229;-68
2021/06/15 07:39:18;;;;;;;4.80;1.80;;;29.40;44.00;;;;;;5161701;27;20219;-68
2021/06/15 07:41:46;;;;;;;3.83;1.83;;;29.60;44.10;;;;;;5163557;27;20673;-68
2021/06/15 07:44:13;;;;;;;4.70;1.80;;;29.70;42.90;;;;;;5163052;27;20213;-68
2021/06/15 07:46:41;;;;;;;6.03;1.80;;;29.80;41.90;;;;;;5161307;27;20219;-68
2021/06/15 07:49:08;;;;;;;3.03;1.57;;;29.80;41.70;;;;;;5163377;27;20214;-68
2021/06/15 07:51:39;;;;;;;2.80;1.80;;;29.90;40.90;;;;;;5164470;27;20508;-68
2021/06/15 07:54:18;;;;;;;2.27;1.50;;;30.10;41.00;;;;;;5120256;27;20246;-68
2021/06/15 07:56:45;;;;;;;3.27;1.57;;;30.20;40.30;;;;;;5124215;27;20581;-68
2021/06/15 07:59:12;;;;;;;4.73;1.67;;;30.30;40.20;;;;;;5124119;27;20208;-68
2021/06/15 08:01:39;;;;;;;3.20;1.60;;;30.40;40.10;;;;;;5120352;27;20268;-68
2021/06/15 08:04:07;;;;;;;2.53;1.70;;;30.50;38.70;;;;;;5122296;28;20230;-68
2021/06/15 08:06:35;;;;;;;1.83;1.47;;;30.50;38.60;;;;;;5125657;28;20223;-68
2021/06/15 08:09:02;;;;;;;2.20;1.87;;;30.60;38.20;;;;;;5122086;28;20257;-68
2021/06/15 08:11:29;;;;;;;2.17;1.47;;;30.70;38.00;;;;;;5124899;28;20207;-69
2021/06/15 08:13:56;;;;;;;3.33;1.50;;;30.80;37.10;;;;;;5122874;28;20239;-68
2021/06/15 08:16:23;;;;;;;2.90;2.03;;;30.90;37.10;;;;;;5123435;28;20212;-69
2021/06/15 08:18:51;;;;;;;6.10;1.90;;;31.00;37.30;;;;;;5122270;28;20656;-68
2021/06/15 08:21:18;;;;;;;3.60;1.40;;;31.00;36.30;;;;;;5122127;27;20285;-69
2021/06/15 08:23:45;;;;;;;2.07;1.70;;;31.10;36.50;;;;;;5121072;28;20273;-68
2021/06/15 08:26:28;;;;;;;4.27;2.30;;;31.20;35.80;;;;;;5122416;28;20212;-68
2021/06/15 08:28:55;;;;;;;4.63;1.77;;;31.20;36.10;;;;;;5122490;28;20216;-68
2021/06/15 08:31:22;;;;;;;1.97;1.60;;;31.20;36.40;;;;;;5124864;28;20252;-68
2021/06/15 08:33:48;;;;;;;4.90;1.70;;;31.30;36.80;;;;;;5121330;28;20248;-68
2021/06/15 08:36:16;;;;;;;2.60;2.10;;;31.40;37.30;;;;;;5124824;27;20215;-68
2021/06/15 08:38:43;;;;;;;45.57;5.17;;;31.50;36.00;;;;;;5125495;28;20216;-68
2021/06/15 08:41:16;;;;;;;2.40;1.80;;;31.50;36.50;;;;;;5121215;28;20219;-68
2021/06/15 08:43:43;;;;;;;2.97;2.07;;;31.50;36.20;;;;;;5126049;27;20276;-68
2021/06/15 08:46:12;;;;;;;2.73;1.73;;;31.70;36.50;;;;;;5124763;27;20211;-68
2021/06/15 08:48:39;;;;;;;6.33;2.10;;;31.80;36.20;;;;;;5125033;27;20239;-68
2021/06/15 08:51:06;;;;;;;5.87;2.00;;;31.80;36.10;;;;;;5128423;27;20219;-68
2021/06/15 08:53:35;;;;;;;3.63;1.77;;;31.90;36.60;;;;;;5156443;27;20262;-68
2021/06/15 08:56:22;;;;;;;5.60;2.17;;;32.00;37.10;;;;;;5168963;27;20202;-68
2021/06/15 08:58:57;;;;;;;2.47;1.53;;;32.20;35.50;;;;;;5164628;27;20215;-68
2021/06/15 09:01:25;;;;;;;4.50;2.03;;;32.20;36.30;;;;;;5167754;27;20207;-68
2021/06/15 09:03:53;;;;;;;4.23;1.70;;;32.20;36.20;;;;;;5169660;27;20225;-68
2021/06/15 09:06:20;;;;;;;3.33;2.10;;;32.20;36.00;;;;;;5166407;27;20211;-68
2021/06/15 09:08:55;;;;;;;4.60;1.70;;;32.30;36.50;;;;;;5160382;27;20628;-68
2021/06/15 09:11:23;;;;;;;7.17;2.10;;;32.30;35.80;;;;;;5166059;27;20209;-68
2021/06/15 09:13:51;;;;;;;3.23;1.63;;;32.30;35.60;;;;;;5166049;27;20227;-68
2021/06/15 09:16:18;;;;;;;2.77;2.20;;;32.40;37.20;;;;;;5164711;27;20215;-68
2021/06/15 09:18:47;;;;;;;4.93;1.80;;;32.50;35.90;;;;;;5158065;27;20291;-68
2021/06/15 09:21:38;;;;;;;3.27;1.77;;;32.60;35.00;;;;;;5161242;27;20586;-68
2021/06/15 09:24:11;;;;;;;2.37;1.87;;;32.70;35.00;;;;;;5153734;27;20213;-68
2021/06/15 09:27:10;;;;;;;3.97;2.27;;;32.50;35.20;;;;;;5168033;27;20218;-68
2021/06/15 09:29:44;;;;;;;4.23;2.27;;;32.10;35.90;;;;;;5168267;27;20819;-68
2021/06/15 09:32:26;;;;;;;4.13;2.30;;;32.00;37.70;;;;;;5162357;27;20268;-68
2021/06/15 09:34:59;;;;;;;5.70;2.50;;;32.00;37.60;;;;;;5166877;27;20207;-68
2021/06/15 09:37:41;;;;;;;3.47;2.30;;;32.10;36.30;;;;;;5162284;27;20211;-68
2021/06/15 09:40:19;;;;;;;3.10;1.70;;;32.00;36.90;;;;;;5163727;27;20578;-68
2021/06/15 09:42:50;;;;;;;5.07;1.77;;;32.10;37.00;;;;;;5163069;27;20214;-68
2021/06/15 09:45:21;;;;;;;4.50;2.20;;;32.20;36.90;;;;;;5163638;27;20219;-68
2021/06/15 09:47:48;;;;;;;4.97;2.07;;;32.30;37.20;;;;;;5166891;27;20214;-68
2021/06/15 09:50:17;;;;;;;4.17;1.97;;;32.40;37.60;;;;;;5169656;27;20218;-68
2021/06/15 09:52:44;;;;;;;2.10;1.90;;;32.50;37.30;;;;;;5159271;27;20306;-68
2021/06/15 09:55:12;;;;;;;5.37;2.30;;;32.70;37.70;;;;;;5167687;27;20543;-68
2021/06/15 09:57:41;;;;;;;4.00;2.37;;;32.80;37.10;;;;;;5160407;27;20260;-68
2021/06/15 10:00:20;;;;;;;3.33;2.37;;;32.90;37.40;;;;;;5166902;27;20202;-68
2021/06/15 10:02:54;;;;;;;3.87;2.30;;;32.90;37.40;;;;;;5161704;27;20275;-67
2021/06/15 10:05:25;;;;;;;4.23;2.10;;;32.80;37.40;;;;;;5167571;27;20214;-67
2021/06/15 10:07:54;;;;;;;3.87;2.23;;;32.50;38.50;;;;;;5168247;27;20214;-68
2021/06/15 10:10:24;;;;;;;3.20;2.20;;;32.60;38.40;;;;;;5161998;27;20535;-68
2021/06/15 10:12:52;;;;;;;3.47;2.43;;;32.70;38.80;;;;;;5162172;27;20242;-68
2021/06/15 10:15:20;;;;;;;3.60;2.40;;;32.80;39.10;;;;;;5162032;27;20369;-68
2021/06/15 10:17:47;;;;;;;6.27;2.70;;;32.90;38.20;;;;;;5167087;27;20577;-68
2021/06/15 10:20:17;;;;;;;3.97;2.53;;;32.90;37.80;;;;;;5165577;27;20535;-68
2021/06/15 10:22:45;;;;;;;4.80;2.30;;;32.90;37.20;;;;;;5164733;27;20211;-68
2021/06/15 10:25:13;;;;;;;3.80;1.93;;;33.00;37.90;;;;;;5168707;27;20259;-68
2021/06/15 10:27:42;;;;;;;3.47;2.13;;;33.00;38.10;;;;;;5164659;27;20211;-68
2021/06/15 10:30:12;;;;;;;5.87;2.40;;;33.10;38.80;;;;;;5167760;27;20211;-68
2021/06/15 10:32:54;;;;;;;3.37;2.30;;;33.10;38.60;;;;;;5166795;27;20211;-68
2021/06/15 10:35:45;;;;;;;5.17;2.20;;;33.10;37.30;;;;;;5162285;27;20338;-68
2021/06/15 10:38:33;;;;;;;4.87;2.67;;;33.00;38.10;;;;;;5161800;27;20581;-68
2021/06/15 10:41:02;;;;;;;4.30;2.30;;;33.00;37.00;;;;;;5143222;27;20323;-68
2021/06/15 10:43:30;;;;;;;2.60;2.10;;;33.00;38.10;;;;;;5165475;27;20215;-68
2021/06/15 10:46:30;;;;;;;4.07;2.33;;;33.10;37.90;;;;;;5164293;27;20207;-68
2021/06/15 10:48:58;;;;;;;3.47;2.33;;;33.20;38.30;;;;;;5146296;27;20297;-68
2021/06/15 10:51:34;;;;;;;4.50;2.30;;;33.30;37.90;;;;;;5164271;27;20663;-68
2021/06/15 10:54:22;;;;;;;2.17;1.97;;;33.30;37.60;;;;;;5166853;27;20250;-68
2021/06/15 10:57:21;;;;;;;3.07;2.33;;;33.20;37.60;;;;;;5160354;27;20256;-68
2021/06/15 11:00:12;;;;;;;7.80;2.37;;;33.00;39.00;;;;;;5162655;27;20743;-67
2021/06/15 11:03:00;;;;;;;4.20;2.80;;;33.10;39.10;;;;;;5162441;27;20276;-67
2021/06/15 11:05:44;;;;;;;5.73;2.40;;;33.10;38.70;;;;;;5161150;27;20223;-67
2021/06/15 11:08:24;;;;;;;2.87;2.20;;;33.30;38.90;;;;;;5164540;27;20260;-68
2021/06/15 11:11:14;;;;;;;2.50;2.17;;;33.30;38.70;;;;;;5162897;27;20206;-68
2021/06/15 11:13:51;;;;;;;2.50;2.30;;;33.30;38.90;;;;;;5142967;27;20594;-68
2021/06/15 11:16:34;;;;;;;2.77;2.37;;;33.10;37.80;;;;;;5166229;27;20678;-68
2021/06/15 11:19:14;;;;;;;2.80;2.30;;;32.90;38.70;;;;;;5164365;27;20206;-68
2021/06/15 11:21:44;;;;;;;3.50;2.10;;;32.90;39.30;;;;;;5160750;27;20244;-68
2021/06/15 11:24:30;;;;;;;4.57;2.60;;;32.80;39.90;;;;;;5166682;27;20572;-68
2021/06/15 11:27:07;;;;;;;3.57;2.47;;;32.90;39.00;;;;;;5158258;27;20230;-68
2021/06/15 11:29:43;;;;;;;4.27;2.80;;;33.00;38.40;;;;;;5165065;27;20209;-68
2021/06/15 11:32:19;;;;;;;8.13;2.80;;;33.00;38.30;;;;;;5159738;27;20222;-68
2021/06/15 11:34:55;;;;;;;3.67;2.37;;;33.10;38.20;;;;;;5165829;27;20549;-68
2021/06/15 11:37:27;;;;;;;3.27;2.47;;;33.30;38.20;;;;;;5167234;27;20216;-68
2021/06/15 11:40:15;;;;;;;2.73;1.67;;;33.30;37.20;;;;;;5159180;27;20226;-68
2021/06/15 11:43:08;;;;;;;2.57;2.30;;;33.10;38.10;;;;;;5155808;27;20584;-68
2021/06/15 11:45:40;;;;;;;3.17;2.17;;;33.10;38.10;;;;;;5150517;27;20221;-68
2021/06/15 11:48:13;;;;;;;5.40;2.43;;;33.00;38.10;;;;;;5165026;27;20218;-68
2021/06/15 11:50:44;;;;;;;4.63;2.40;;;33.00;38.50;;;;;;5164138;27;20671;-68
2021/06/15 11:53:17;;;;;;;2.70;2.20;;;33.10;38.00;;;;;;5158977;27;20781;-68
2021/06/15 11:55:51;;;;;;;3.57;2.40;;;33.30;37.60;;;;;;5166245;27;20206;-68
2021/06/15 11:58:26;;;;;;;6.03;2.30;;;33.20;38.10;;;;;;5166133;27;20209;-68
2021/06/15 12:01:04;;;;;;;2.83;2.63;;;33.10;39.20;;;;;;5160221;27;20284;-68
2021/06/15 12:03:42;;;;;;;5.90;2.80;;;33.10;38.60;;;;;;5164607;27;20293;-68
2021/06/15 12:06:11;;;;;;;3.50;3.13;;;33.10;38.60;;;;;;5151980;27;20232;-68
2021/06/15 12:08:40;;;;;;;4.10;2.67;;;33.00;37.60;;;;;;5163022;27;20266;-68
2021/06/15 12:11:11;;;;;;;3.67;3.23;;;33.00;38.40;;;;;;5164180;27;20221;-68
2021/06/15 12:13:39;;;;;;;17.40;3.40;;;33.00;38.70;;;;;;5166204;27;20234;-68
2021/06/15 12:16:17;;;;;;;3.63;3.10;;;33.00;39.00;;;;;;5159990;27;20218;-68
2021/06/15 12:18:50;;;;;;;4.90;2.70;;;33.10;38.70;;;;;;5162665;27;20209;-68
2021/06/15 12:21:22;;;;;;;6.53;2.80;;;33.10;36.80;;;;;;5170502;27;20214;-68
2021/06/15 12:23:53;;;;;;;5.83;3.00;;;32.90;37.30;;;;;;5164165;27;20215;-68
2021/06/15 12:26:29;;;;;;;4.30;3.17;;;32.80;38.30;;;;;;5151278;27;20736;-68
2021/06/15 12:29:04;;;;;;;2.93;2.63;;;32.80;38.60;;;;;;5170645;27;20221;-68
2021/06/15 12:31:35;;;;;;;5.43;2.77;;;32.80;39.10;;;;;;5164527;27;20206;-68
2021/06/15 12:34:07;;;;;;;5.10;3.37;;;32.90;38.70;;;;;;5169370;27;20233;-68
2021/06/15 12:36:38;;;;;;;3.50;3.13;;;33.00;37.20;;;;;;5170338;27;20205;-68
2021/06/15 12:39:14;;;;;;;4.87;2.90;;;32.70;35.60;;;;;;5167263;27;20673;-68
2021/06/15 12:41:45;;;;;;;6.63;2.80;;;32.40;38.00;;;;;;5166936;27;20243;-68
2021/06/15 12:44:13;;;;;;;5.40;2.40;;;32.40;38.90;;;;;;5164046;27;20540;-68
2021/06/15 12:46:41;;;;;;;3.73;2.57;;;32.50;38.10;;;;;;5170502;27;20203;-68
2021/06/15 12:49:20;;;;;;;9.90;2.90;;;32.50;39.10;;;;;;5162917;27;20207;-68
2021/06/15 12:51:47;;;;;;;3.20;2.77;;;32.70;39.20;;;;;;5168607;27;20270;-68
2021/06/15 12:54:20;;;;;;;3.93;2.90;;;32.80;38.20;;;;;;5169458;27;20294;-68
2021/06/15 12:57:02;;;;;;;6.20;2.77;;;32.70;39.10;;;;;;5158533;27;20623;-68
2021/06/15 12:59:31;;;;;;;80.97;69.63;;;32.80;38.40;;;;;;5169640;27;20217;-68
2021/06/15 13:01:58;;;;;;;3.93;2.70;;;32.80;38.70;;;;;;5167164;27;20211;-68
2021/06/15 13:04:29;;;;;;;6.43;3.20;;;32.70;38.50;;;;;;5163836;27;20230;-68
2021/06/15 13:07:00;;;;;;;30.00;19.23;;;32.60;39.20;;;;;;5166642;27;20207;-68